sensor_id;sensor_type;location;lat;lon;timestamp;P1;durP1;ratioP1;P2;durP2;ratioP2
11313;SDS011;5712;48.858;9.206;2023-02-01T00:02:25;4.17;;;2.53;;
11313;SDS011;5712;48.858;9.206;2023-02-01T00:04:52;2.90;;;2.40;;
11313;SDS011;5712;48.858;9.206;2023-02-01T00:07:18;5.00;;;2.90;;
11313;SDS011;5712;48.858;9.206;2023-02-01T00:09:44;3.83;;;2.63;;
11313;SDS011;5712;48.858;9.206;2023-02-01T00:12:12;4.37;;;2.70;;
11313;SDS011;5712;48.858;9.206;2023-02-01T00:14:39;2.90;;;2.43;;
11313;SDS011;5712;48.858;9.206;2023-02-01T00:17:05;3.17;;;2.50;;
11313;SDS011;5712;48.858;9.206;2023-02-01T00:19:32;3.27;;;2.10;;
11313;SDS011;5712;48.858;9.206;2023-02-01T00:21:59;2.77;;;2.40;;
11313;SDS011;5712;48.858;9.206;2023-02-01T00:24:26;2.80;;;2.13;;
11313;SDS011;5712;48.858;9.206;2023-02-01T00:26:52;3.47;;;2.37;;
11313;SDS011;5712;48.858;9.206;2023-02-01T00:29:20;2.37;;;2.00;;
11313;SDS011;5712;48.858;9.206;2023-02-01T00:31:49;2.33;;;2.13;;
11313;SDS011;5712;48.858;9.206;2023-02-01T00:34:18;3.80;;;1.97;;
11313;SDS011;5712;48.858;9.206;2023-02-01T00:36:45;2.33;;;2.00;;
11313;SDS011;5712;48.858;9.206;2023-02-01T00:39:13;2.00;;;1.80;;
11313;SDS011;5712;48.858;9.206;2023-02-01T00:41:40;2.03;;;1.83;;
11313;SDS011;5712;48.858;9.206;2023-02-01T00:44:06;2.87;;;2.20;;
11313;SDS011;5712;48.858;9.206;2023-02-01T00:46:34;2.43;;;2.00;;
11313;SDS011;5712;48.858;9.206;2023-02-01T00:49:01;1.97;;;1.77;;
11313;SDS011;5712;48.858;9.206;2023-02-01T00:51:28;2.77;;;2.00;;
11313;SDS011;5712;48.858;9.206;2023-02-01T00:53:56;1.93;;;1.73;;
11313;SDS011;5712;48.858;9.206;2023-02-01T00:56:23;3.13;;;2.43;;
11313;SDS011;5712;48.858;9.206;2023-02-01T00:58:49;3.03;;;2.27;;
11313;SDS011;5712;48.858;9.206;2023-02-01T01:01:17;5.13;;;2.33;;
11313;SDS011;5712;48.858;9.206;2023-02-01T01:03:48;2.43;;;2.10;;
11313;SDS011;5712;48.858;9.206;2023-02-01T01:06:17;2.60;;;1.93;;
11313;SDS011;5712;48.858;9.206;2023-02-01T01:08:45;2.20;;;2.00;;
11313;SDS011;5712;48.858;9.206;2023-02-01T01:11:13;2.77;;;2.07;;
11313;SDS011;5712;48.858;9.206;2023-02-01T01:13:41;9.30;;;2.20;;
11313;SDS011;5712;48.858;9.206;2023-02-01T01:16:09;2.37;;;1.57;;
11313;SDS011;5712;48.858;9.206;2023-02-01T01:18:36;2.33;;;1.93;;
11313;SDS011;5712;48.858;9.206;2023-02-01T01:21:05;2.10;;;1.90;;
11313;SDS011;5712;48.858;9.206;2023-02-01T01:23:33;2.47;;;1.77;;
11313;SDS011;5712;48.858;9.206;2023-02-01T01:26:00;1.80;;;1.70;;
11313;SDS011;5712;48.858;9.206;2023-02-01T01:28:27;2.57;;;1.70;;
11313;SDS011;5712;48.858;9.206;2023-02-01T01:30:53;3.13;;;1.90;;
11313;SDS011;5712;48.858;9.206;2023-02-01T01:33:19;1.77;;;1.63;;
11313;SDS011;5712;48.858;9.206;2023-02-01T01:35:46;1.60;;;1.50;;
11313;SDS011;5712;48.858;9.206;2023-02-01T01:38:14;1.90;;;1.53;;
11313;SDS011;5712;48.858;9.206;2023-02-01T01:40:41;1.90;;;1.50;;
11313;SDS011;5712;48.858;9.206;2023-02-01T01:43:12;1.73;;;1.53;;
11313;SDS011;5712;48.858;9.206;2023-02-01T01:45:40;2.43;;;1.60;;
11313;SDS011;5712;48.858;9.206;2023-02-01T01:48:07;1.60;;;1.50;;
11313;SDS011;5712;48.858;9.206;2023-02-01T01:50:37;1.87;;;1.57;;
11313;SDS011;5712;48.858;9.206;2023-02-01T01:53:08;1.60;;;1.47;;
11313;SDS011;5712;48.858;9.206;2023-02-01T01:55:39;1.67;;;1.50;;
11313;SDS011;5712;48.858;9.206;2023-02-01T01:58:10;1.30;;;1.20;;
11313;SDS011;5712;48.858;9.206;2023-02-01T02:00:40;2.53;;;1.43;;
11313;SDS011;5712;48.858;9.206;2023-02-01T02:03:09;1.83;;;1.60;;
11313;SDS011;5712;48.858;9.206;2023-02-01T02:05:41;1.40;;;1.30;;
11313;SDS011;5712;48.858;9.206;2023-02-01T02:08:08;1.63;;;1.47;;
11313;SDS011;5712;48.858;9.206;2023-02-01T02:10:35;2.30;;;1.33;;
11313;SDS011;5712;48.858;9.206;2023-02-01T02:13:21;2.60;;;1.63;;
11313;SDS011;5712;48.858;9.206;2023-02-01T02:15:50;1.70;;;1.50;;
11313;SDS011;5712;48.858;9.206;2023-02-01T02:18:26;1.47;;;1.20;;
11313;SDS011;5712;48.858;9.206;2023-02-01T02:21:08;1.40;;;1.30;;
11313;SDS011;5712;48.858;9.206;2023-02-01T02:26:47;2.97;;;1.40;;
11313;SDS011;5712;48.858;9.206;2023-02-01T02:36:01;1.53;;;1.43;;
11313;SDS011;5712;48.858;9.206;2023-02-01T02:38:35;1.30;;;1.20;;
11313;SDS011;5712;48.858;9.206;2023-02-01T02:41:12;1.73;;;1.33;;
11313;SDS011;5712;48.858;9.206;2023-02-01T02:44:04;1.60;;;1.50;;
11313;SDS011;5712;48.858;9.206;2023-02-01T02:46:53;1.77;;;1.17;;
11313;SDS011;5712;48.858;9.206;2023-02-01T02:49:47;1.53;;;1.43;;
11313;SDS011;5712;48.858;9.206;2023-02-01T02:52:38;1.57;;;1.47;;
11313;SDS011;5712;48.858;9.206;2023-02-01T02:55:30;3.33;;;1.70;;
11313;SDS011;5712;48.858;9.206;2023-02-01T02:57:58;1.70;;;1.60;;
11313;SDS011;5712;48.858;9.206;2023-02-01T03:00:43;2.37;;;1.73;;
11313;SDS011;5712;48.858;9.206;2023-02-01T03:03:29;1.60;;;1.40;;
11313;SDS011;5712;48.858;9.206;2023-02-01T03:06:15;1.93;;;1.60;;
11313;SDS011;5712;48.858;9.206;2023-02-01T03:08:43;2.40;;;2.10;;
11313;SDS011;5712;48.858;9.206;2023-02-01T03:11:11;2.03;;;1.80;;
11313;SDS011;5712;48.858;9.206;2023-02-01T03:13:41;1.90;;;1.70;;
11313;SDS011;5712;48.858;9.206;2023-02-01T03:16:11;2.17;;;1.77;;
11313;SDS011;5712;48.858;9.206;2023-02-01T03:18:45;2.27;;;2.07;;
11313;SDS011;5712;48.858;9.206;2023-02-01T03:21:23;2.40;;;1.90;;
11313;SDS011;5712;48.858;9.206;2023-02-01T03:23:52;2.50;;;2.10;;
11313;SDS011;5712;48.858;9.206;2023-02-01T03:26:22;2.47;;;2.00;;
11313;SDS011;5712;48.858;9.206;2023-02-01T03:28:54;2.30;;;2.10;;
11313;SDS011;5712;48.858;9.206;2023-02-01T03:31:26;2.70;;;2.47;;
11313;SDS011;5712;48.858;9.206;2023-02-01T03:33:54;4.53;;;2.10;;
11313;SDS011;5712;48.858;9.206;2023-02-01T03:36:24;2.40;;;2.20;;
11313;SDS011;5712;48.858;9.206;2023-02-01T03:38:55;2.80;;;2.20;;
11313;SDS011;5712;48.858;9.206;2023-02-01T03:41:29;2.20;;;2.00;;
11313;SDS011;5712;48.858;9.206;2023-02-01T03:44:02;2.03;;;1.80;;
11313;SDS011;5712;48.858;9.206;2023-02-01T03:46:38;2.73;;;1.90;;
11313;SDS011;5712;48.858;9.206;2023-02-01T03:49:10;2.67;;;2.00;;
11313;SDS011;5712;48.858;9.206;2023-02-01T03:51:43;2.00;;;1.70;;
11313;SDS011;5712;48.858;9.206;2023-02-01T03:54:11;2.33;;;1.93;;
11313;SDS011;5712;48.858;9.206;2023-02-01T03:56:42;2.60;;;1.90;;
11313;SDS011;5712;48.858;9.206;2023-02-01T03:59:10;2.47;;;1.90;;
11313;SDS011;5712;48.858;9.206;2023-02-01T04:01:37;2.27;;;1.83;;
11313;SDS011;5712;48.858;9.206;2023-02-01T04:04:04;2.60;;;1.60;;
11313;SDS011;5712;48.858;9.206;2023-02-01T04:06:31;1.87;;;1.70;;
11313;SDS011;5712;48.858;9.206;2023-02-01T04:08:59;2.07;;;1.70;;
11313;SDS011;5712;48.858;9.206;2023-02-01T04:11:25;2.00;;;1.73;;
11313;SDS011;5712;48.858;9.206;2023-02-01T04:13:54;2.30;;;1.80;;
11313;SDS011;5712;48.858;9.206;2023-02-01T04:16:20;1.57;;;1.40;;
11313;SDS011;5712;48.858;9.206;2023-02-01T04:18:47;2.77;;;1.70;;
11313;SDS011;5712;48.858;9.206;2023-02-01T04:21:13;4.43;;;1.63;;
11313;SDS011;5712;48.858;9.206;2023-02-01T04:23:40;2.47;;;1.70;;
11313;SDS011;5712;48.858;9.206;2023-02-01T04:26:08;1.83;;;1.67;;
11313;SDS011;5712;48.858;9.206;2023-02-01T04:28:34;2.67;;;1.87;;
11313;SDS011;5712;48.858;9.206;2023-02-01T04:31:00;1.73;;;1.63;;
11313;SDS011;5712;48.858;9.206;2023-02-01T04:33:27;1.70;;;1.60;;
11313;SDS011;5712;48.858;9.206;2023-02-01T04:35:53;1.87;;;1.73;;
11313;SDS011;5712;48.858;9.206;2023-02-01T04:38:20;1.80;;;1.70;;
11313;SDS011;5712;48.858;9.206;2023-02-01T04:40:47;1.90;;;1.70;;
11313;SDS011;5712;48.858;9.206;2023-02-01T04:43:15;2.73;;;1.87;;
11313;SDS011;5712;48.858;9.206;2023-02-01T04:45:46;2.03;;;1.50;;
11313;SDS011;5712;48.858;9.206;2023-02-01T04:48:13;1.47;;;1.37;;
11313;SDS011;5712;48.858;9.206;2023-02-01T04:50:40;1.93;;;1.57;;
11313;SDS011;5712;48.858;9.206;2023-02-01T04:53:06;1.73;;;1.60;;
11313;SDS011;5712;48.858;9.206;2023-02-01T04:55:33;3.03;;;2.10;;
11313;SDS011;5712;48.858;9.206;2023-02-01T04:57:59;1.90;;;1.73;;
11313;SDS011;5712;48.858;9.206;2023-02-01T05:00:27;1.93;;;1.73;;
11313;SDS011;5712;48.858;9.206;2023-02-01T05:02:53;1.80;;;1.70;;
11313;SDS011;5712;48.858;9.206;2023-02-01T05:05:20;2.20;;;1.53;;
11313;SDS011;5712;48.858;9.206;2023-02-01T05:07:46;1.67;;;1.57;;
11313;SDS011;5712;48.858;9.206;2023-02-01T05:10:13;1.97;;;1.60;;
11313;SDS011;5712;48.858;9.206;2023-02-01T05:12:39;4.07;;;2.17;;
11313;SDS011;5712;48.858;9.206;2023-02-01T05:15:23;2.03;;;1.60;;
11313;SDS011;5712;48.858;9.206;2023-02-01T05:17:51;3.20;;;1.90;;
11313;SDS011;5712;48.858;9.206;2023-02-01T05:20:18;2.17;;;1.87;;
11313;SDS011;5712;48.858;9.206;2023-02-01T05:22:44;2.17;;;1.83;;
11313;SDS011;5712;48.858;9.206;2023-02-01T05:25:11;2.30;;;1.80;;
11313;SDS011;5712;48.858;9.206;2023-02-01T05:27:37;3.80;;;1.93;;
11313;SDS011;5712;48.858;9.206;2023-02-01T05:30:04;2.23;;;1.70;;
11313;SDS011;5712;48.858;9.206;2023-02-01T05:32:31;1.93;;;1.60;;
11313;SDS011;5712;48.858;9.206;2023-02-01T05:35:00;2.63;;;2.07;;
11313;SDS011;5712;48.858;9.206;2023-02-01T05:37:26;3.43;;;1.83;;
11313;SDS011;5712;48.858;9.206;2023-02-01T05:39:53;2.13;;;1.87;;
11313;SDS011;5712;48.858;9.206;2023-02-01T05:42:19;2.77;;;1.83;;
11313;SDS011;5712;48.858;9.206;2023-02-01T05:44:46;1.90;;;1.80;;
11313;SDS011;5712;48.858;9.206;2023-02-01T05:47:12;2.43;;;1.80;;
11313;SDS011;5712;48.858;9.206;2023-02-01T05:49:39;2.60;;;1.80;;
11313;SDS011;5712;48.858;9.206;2023-02-01T05:52:07;2.03;;;1.83;;
11313;SDS011;5712;48.858;9.206;2023-02-01T05:54:33;1.77;;;1.67;;
11313;SDS011;5712;48.858;9.206;2023-02-01T05:57:00;1.67;;;1.40;;
11313;SDS011;5712;48.858;9.206;2023-02-01T05:59:26;1.77;;;1.60;;
11313;SDS011;5712;48.858;9.206;2023-02-01T06:01:53;1.70;;;1.53;;
11313;SDS011;5712;48.858;9.206;2023-02-01T06:04:20;2.10;;;1.57;;
11313;SDS011;5712;48.858;9.206;2023-02-01T06:06:47;1.60;;;1.50;;
11313;SDS011;5712;48.858;9.206;2023-02-01T06:09:17;1.80;;;1.50;;
11313;SDS011;5712;48.858;9.206;2023-02-01T06:11:46;1.70;;;1.60;;
11313;SDS011;5712;48.858;9.206;2023-02-01T06:14:13;1.90;;;1.50;;
11313;SDS011;5712;48.858;9.206;2023-02-01T06:16:39;2.10;;;1.90;;
11313;SDS011;5712;48.858;9.206;2023-02-01T06:19:06;1.57;;;1.40;;
11313;SDS011;5712;48.858;9.206;2023-02-01T06:21:34;1.73;;;1.63;;
11313;SDS011;5712;48.858;9.206;2023-02-01T06:24:01;1.93;;;1.57;;
11313;SDS011;5712;48.858;9.206;2023-02-01T06:26:29;1.63;;;1.53;;
11313;SDS011;5712;48.858;9.206;2023-02-01T06:28:55;1.70;;;1.60;;
11313;SDS011;5712;48.858;9.206;2023-02-01T06:31:22;2.63;;;2.03;;
11313;SDS011;5712;48.858;9.206;2023-02-01T06:33:50;1.80;;;1.70;;
11313;SDS011;5712;48.858;9.206;2023-02-01T06:36:18;5.47;;;4.30;;
11313;SDS011;5712;48.858;9.206;2023-02-01T06:38:46;1.77;;;1.67;;
11313;SDS011;5712;48.858;9.206;2023-02-01T06:41:12;3.67;;;2.40;;
11313;SDS011;5712;48.858;9.206;2023-02-01T06:43:43;4.67;;;2.27;;
11313;SDS011;5712;48.858;9.206;2023-02-01T06:46:11;3.60;;;2.10;;
11313;SDS011;5712;48.858;9.206;2023-02-01T06:48:39;4.73;;;2.47;;
11313;SDS011;5712;48.858;9.206;2023-02-01T06:51:05;3.73;;;2.20;;
11313;SDS011;5712;48.858;9.206;2023-02-01T06:53:32;4.00;;;2.47;;
11313;SDS011;5712;48.858;9.206;2023-02-01T06:56:00;4.00;;;2.73;;
11313;SDS011;5712;48.858;9.206;2023-02-01T06:58:28;6.20;;;2.90;;
11313;SDS011;5712;48.858;9.206;2023-02-01T07:00:57;3.43;;;2.23;;
11313;SDS011;5712;48.858;9.206;2023-02-01T07:03:23;3.97;;;2.67;;
11313;SDS011;5712;48.858;9.206;2023-02-01T07:05:53;5.47;;;2.93;;
11313;SDS011;5712;48.858;9.206;2023-02-01T07:08:23;7.10;;;2.90;;
11313;SDS011;5712;48.858;9.206;2023-02-01T07:10:49;4.77;;;3.00;;
11313;SDS011;5712;48.858;9.206;2023-02-01T07:13:16;6.37;;;3.33;;
11313;SDS011;5712;48.858;9.206;2023-02-01T07:15:42;8.80;;;3.00;;
11313;SDS011;5712;48.858;9.206;2023-02-01T07:18:10;5.30;;;3.00;;
11313;SDS011;5712;48.858;9.206;2023-02-01T07:20:39;6.20;;;2.97;;
11313;SDS011;5712;48.858;9.206;2023-02-01T07:23:05;6.90;;;3.20;;
11313;SDS011;5712;48.858;9.206;2023-02-01T07:25:33;6.50;;;3.23;;
11313;SDS011;5712;48.858;9.206;2023-02-01T07:28:00;7.23;;;2.80;;
11313;SDS011;5712;48.858;9.206;2023-02-01T07:30:27;5.23;;;3.00;;
11313;SDS011;5712;48.858;9.206;2023-02-01T07:32:53;5.13;;;3.10;;
11313;SDS011;5712;48.858;9.206;2023-02-01T07:35:21;4.83;;;2.90;;
11313;SDS011;5712;48.858;9.206;2023-02-01T07:37:48;4.83;;;3.43;;
11313;SDS011;5712;48.858;9.206;2023-02-01T07:40:14;7.00;;;3.33;;
11313;SDS011;5712;48.858;9.206;2023-02-01T07:42:41;8.53;;;3.53;;
11313;SDS011;5712;48.858;9.206;2023-02-01T07:45:07;5.40;;;3.17;;
11313;SDS011;5712;48.858;9.206;2023-02-01T07:47:34;6.20;;;4.10;;
11313;SDS011;5712;48.858;9.206;2023-02-01T07:50:01;7.40;;;3.53;;
11313;SDS011;5712;48.858;9.206;2023-02-01T07:52:29;8.63;;;3.50;;
11313;SDS011;5712;48.858;9.206;2023-02-01T07:54:55;5.13;;;3.10;;
11313;SDS011;5712;48.858;9.206;2023-02-01T07:57:22;6.50;;;3.20;;
11313;SDS011;5712;48.858;9.206;2023-02-01T07:59:48;5.00;;;3.43;;
11313;SDS011;5712;48.858;9.206;2023-02-01T08:02:32;5.90;;;3.10;;
11313;SDS011;5712;48.858;9.206;2023-02-01T08:04:58;7.67;;;3.50;;
11313;SDS011;5712;48.858;9.206;2023-02-01T08:07:25;7.17;;;3.60;;
11313;SDS011;5712;48.858;9.206;2023-02-01T08:09:53;6.87;;;3.00;;
11313;SDS011;5712;48.858;9.206;2023-02-01T08:12:19;8.40;;;3.70;;
11313;SDS011;5712;48.858;9.206;2023-02-01T08:14:46;8.60;;;3.50;;
11313;SDS011;5712;48.858;9.206;2023-02-01T08:17:12;7.17;;;3.27;;
11313;SDS011;5712;48.858;9.206;2023-02-01T08:19:39;7.10;;;3.33;;
11313;SDS011;5712;48.858;9.206;2023-02-01T08:22:05;8.50;;;3.00;;
11313;SDS011;5712;48.858;9.206;2023-02-01T08:24:32;6.27;;;3.00;;
11313;SDS011;5712;48.858;9.206;2023-02-01T08:27:01;9.57;;;3.00;;
11313;SDS011;5712;48.858;9.206;2023-02-01T08:29:28;9.10;;;3.70;;
11313;SDS011;5712;48.858;9.206;2023-02-01T08:31:54;9.67;;;3.20;;
11313;SDS011;5712;48.858;9.206;2023-02-01T08:34:21;5.30;;;2.70;;
11313;SDS011;5712;48.858;9.206;2023-02-01T08:36:48;5.87;;;2.80;;
11313;SDS011;5712;48.858;9.206;2023-02-01T08:39:16;7.40;;;3.30;;
11313;SDS011;5712;48.858;9.206;2023-02-01T08:41:43;5.80;;;3.00;;
11313;SDS011;5712;48.858;9.206;2023-02-01T08:44:31;8.23;;;3.27;;
11313;SDS011;5712;48.858;9.206;2023-02-01T08:46:58;6.17;;;3.20;;
11313;SDS011;5712;48.858;9.206;2023-02-01T08:49:24;7.97;;;3.30;;
11313;SDS011;5712;48.858;9.206;2023-02-01T08:51:51;5.07;;;2.97;;
11313;SDS011;5712;48.858;9.206;2023-02-01T08:54:18;9.73;;;3.37;;
11313;SDS011;5712;48.858;9.206;2023-02-01T08:56:44;4.70;;;2.77;;
11313;SDS011;5712;48.858;9.206;2023-02-01T08:59:10;6.80;;;2.73;;
11313;SDS011;5712;48.858;9.206;2023-02-01T09:01:38;6.63;;;2.60;;
11313;SDS011;5712;48.858;9.206;2023-02-01T09:04:05;7.80;;;3.20;;
11313;SDS011;5712;48.858;9.206;2023-02-01T09:06:31;8.23;;;3.07;;
11313;SDS011;5712;48.858;9.206;2023-02-01T09:08:58;6.83;;;2.80;;
11313;SDS011;5712;48.858;9.206;2023-02-01T09:11:24;5.87;;;2.90;;
11313;SDS011;5712;48.858;9.206;2023-02-01T09:13:51;11.50;;;3.33;;
11313;SDS011;5712;48.858;9.206;2023-02-01T09:16:18;6.67;;;3.20;;
11313;SDS011;5712;48.858;9.206;2023-02-01T09:18:46;7.50;;;2.77;;
11313;SDS011;5712;48.858;9.206;2023-02-01T09:21:12;5.63;;;2.67;;
11313;SDS011;5712;48.858;9.206;2023-02-01T09:23:39;7.10;;;3.50;;
11313;SDS011;5712;48.858;9.206;2023-02-01T09:26:05;7.57;;;3.43;;
11313;SDS011;5712;48.858;9.206;2023-02-01T09:28:32;7.20;;;3.30;;
11313;SDS011;5712;48.858;9.206;2023-02-01T09:30:59;6.33;;;2.50;;
11313;SDS011;5712;48.858;9.206;2023-02-01T09:33:27;5.73;;;2.80;;
11313;SDS011;5712;48.858;9.206;2023-02-01T09:35:59;8.37;;;3.10;;
11313;SDS011;5712;48.858;9.206;2023-02-01T09:38:27;5.53;;;2.63;;
11313;SDS011;5712;48.858;9.206;2023-02-01T09:40:53;8.20;;;2.90;;
11313;SDS011;5712;48.858;9.206;2023-02-01T09:43:22;6.63;;;2.83;;
11313;SDS011;5712;48.858;9.206;2023-02-01T09:46:10;8.57;;;3.27;;
11313;SDS011;5712;48.858;9.206;2023-02-01T09:48:45;9.17;;;2.50;;
11313;SDS011;5712;48.858;9.206;2023-02-01T09:51:16;6.97;;;3.40;;
11313;SDS011;5712;48.858;9.206;2023-02-01T09:53:51;9.17;;;2.87;;
11313;SDS011;5712;48.858;9.206;2023-02-01T09:56:25;8.53;;;2.67;;
11313;SDS011;5712;48.858;9.206;2023-02-01T09:59:01;11.53;;;2.87;;
11313;SDS011;5712;48.858;9.206;2023-02-01T10:01:35;8.30;;;2.97;;
11313;SDS011;5712;48.858;9.206;2023-02-01T10:04:04;6.87;;;3.13;;
11313;SDS011;5712;48.858;9.206;2023-02-01T10:06:36;7.93;;;2.90;;
11313;SDS011;5712;48.858;9.206;2023-02-01T10:09:28;7.50;;;2.73;;
11313;SDS011;5712;48.858;9.206;2023-02-01T10:12:11;9.53;;;2.93;;
11313;SDS011;5712;48.858;9.206;2023-02-01T10:14:59;7.17;;;2.53;;
11313;SDS011;5712;48.858;9.206;2023-02-01T10:17:40;8.93;;;2.90;;
11313;SDS011;5712;48.858;9.206;2023-02-01T10:20:20;9.07;;;2.77;;
11313;SDS011;5712;48.858;9.206;2023-02-01T10:22:54;10.43;;;3.05;;
11313;SDS011;5712;48.858;9.206;2023-02-01T10:25:40;12.37;;;3.00;;
11313;SDS011;5712;48.858;9.206;2023-02-01T10:28:15;10.97;;;2.70;;
11313;SDS011;5712;48.858;9.206;2023-02-01T10:30:44;11.00;;;2.57;;
11313;SDS011;5712;48.858;9.206;2023-02-01T10:33:14;8.30;;;2.70;;
11313;SDS011;5712;48.858;9.206;2023-02-01T10:35:43;7.67;;;2.50;;
11313;SDS011;5712;48.858;9.206;2023-02-01T10:38:16;10.93;;;3.10;;
11313;SDS011;5712;48.858;9.206;2023-02-01T10:40:51;12.53;;;3.10;;
11313;SDS011;5712;48.858;9.206;2023-02-01T10:43:19;7.67;;;2.53;;
11313;SDS011;5712;48.858;9.206;2023-02-01T10:45:46;5.93;;;2.63;;
11313;SDS011;5712;48.858;9.206;2023-02-01T10:48:12;9.17;;;3.00;;
11313;SDS011;5712;48.858;9.206;2023-02-01T10:50:41;15.20;;;2.90;;
11313;SDS011;5712;48.858;9.206;2023-02-01T10:53:15;8.63;;;3.13;;
11313;SDS011;5712;48.858;9.206;2023-02-01T10:55:48;7.27;;;2.60;;
11313;SDS011;5712;48.858;9.206;2023-02-01T10:58:16;13.20;;;2.97;;
11313;SDS011;5712;48.858;9.206;2023-02-01T11:00:45;8.80;;;2.80;;
11313;SDS011;5712;48.858;9.206;2023-02-01T11:03:30;11.43;;;2.50;;
11313;SDS011;5712;48.858;9.206;2023-02-01T11:05:59;7.07;;;2.43;;
11313;SDS011;5712;48.858;9.206;2023-02-01T11:08:28;7.20;;;2.40;;
11313;SDS011;5712;48.858;9.206;2023-02-01T11:10:59;7.90;;;2.17;;
11313;SDS011;5712;48.858;9.206;2023-02-01T11:13:31;6.67;;;3.10;;
11313;SDS011;5712;48.858;9.206;2023-02-01T11:16:01;7.17;;;2.53;;
11313;SDS011;5712;48.858;9.206;2023-02-01T11:18:30;9.40;;;2.70;;
11313;SDS011;5712;48.858;9.206;2023-02-01T11:21:00;7.97;;;2.30;;
11313;SDS011;5712;48.858;9.206;2023-02-01T11:23:30;10.83;;;3.10;;
11313;SDS011;5712;48.858;9.206;2023-02-01T11:25:59;7.87;;;2.57;;
11313;SDS011;5712;48.858;9.206;2023-02-01T11:28:27;7.70;;;2.47;;
11313;SDS011;5712;48.858;9.206;2023-02-01T11:30:58;9.83;;;3.00;;
11313;SDS011;5712;48.858;9.206;2023-02-01T11:33:29;8.67;;;3.20;;
11313;SDS011;5712;48.858;9.206;2023-02-01T11:36:00;8.00;;;2.93;;
11313;SDS011;5712;48.858;9.206;2023-02-01T11:38:34;10.10;;;2.57;;
11313;SDS011;5712;48.858;9.206;2023-02-01T11:41:13;10.87;;;2.60;;
11313;SDS011;5712;48.858;9.206;2023-02-01T11:43:50;10.70;;;2.87;;
11313;SDS011;5712;48.858;9.206;2023-02-01T11:46:20;6.67;;;2.50;;
11313;SDS011;5712;48.858;9.206;2023-02-01T11:48:51;8.40;;;2.83;;
11313;SDS011;5712;48.858;9.206;2023-02-01T11:51:37;6.80;;;2.00;;
11313;SDS011;5712;48.858;9.206;2023-02-01T11:54:17;8.40;;;2.47;;
11313;SDS011;5712;48.858;9.206;2023-02-01T11:57:10;6.33;;;1.93;;
11313;SDS011;5712;48.858;9.206;2023-02-01T11:59:49;8.60;;;2.83;;
11313;SDS011;5712;48.858;9.206;2023-02-01T12:05:32;8.17;;;2.30;;
11313;SDS011;5712;48.858;9.206;2023-02-01T12:08:15;4.43;;;2.00;;
11313;SDS011;5712;48.858;9.206;2023-02-01T12:10:55;6.23;;;2.80;;
11313;SDS011;5712;48.858;9.206;2023-02-01T12:13:38;6.67;;;2.50;;
11313;SDS011;5712;48.858;9.206;2023-02-01T12:16:15;6.93;;;2.37;;
11313;SDS011;5712;48.858;9.206;2023-02-01T12:18:54;6.77;;;2.50;;
11313;SDS011;5712;48.858;9.206;2023-02-01T12:21:33;7.10;;;2.17;;
11313;SDS011;5712;48.858;9.206;2023-02-01T12:24:24;8.80;;;2.13;;
11313;SDS011;5712;48.858;9.206;2023-02-01T12:27:10;8.10;;;2.50;;
11313;SDS011;5712;48.858;9.206;2023-02-01T12:30:02;6.67;;;2.30;;
11313;SDS011;5712;48.858;9.206;2023-02-01T12:32:47;10.33;;;2.57;;
11313;SDS011;5712;48.858;9.206;2023-02-01T12:35:28;7.37;;;2.37;;
11313;SDS011;5712;48.858;9.206;2023-02-01T12:38:21;7.53;;;1.90;;
11313;SDS011;5712;48.858;9.206;2023-02-01T12:41:19;10.13;;;2.67;;
11313;SDS011;5712;48.858;9.206;2023-02-01T12:43:59;7.17;;;2.30;;
11313;SDS011;5712;48.858;9.206;2023-02-01T12:46:32;4.97;;;2.20;;
11313;SDS011;5712;48.858;9.206;2023-02-01T12:49:03;10.37;;;3.30;;
11313;SDS011;5712;48.858;9.206;2023-02-01T12:51:33;8.43;;;2.73;;
11313;SDS011;5712;48.858;9.206;2023-02-01T12:54:03;8.47;;;2.70;;
11313;SDS011;5712;48.858;9.206;2023-02-01T12:56:38;6.63;;;2.30;;
11313;SDS011;5712;48.858;9.206;2023-02-01T12:59:12;8.90;;;2.50;;
11313;SDS011;5712;48.858;9.206;2023-02-01T13:01:45;13.33;;;3.03;;
11313;SDS011;5712;48.858;9.206;2023-02-01T13:04:18;7.47;;;2.30;;
11313;SDS011;5712;48.858;9.206;2023-02-01T13:06:50;11.87;;;3.30;;
11313;SDS011;5712;48.858;9.206;2023-02-01T13:09:21;10.13;;;3.03;;
11313;SDS011;5712;48.858;9.206;2023-02-01T13:11:52;9.33;;;3.43;;
11313;SDS011;5712;48.858;9.206;2023-02-01T13:14:29;8.60;;;2.90;;
11313;SDS011;5712;48.858;9.206;2023-02-01T13:17:00;7.17;;;2.97;;
11313;SDS011;5712;48.858;9.206;2023-02-01T13:19:30;11.70;;;2.70;;
11313;SDS011;5712;48.858;9.206;2023-02-01T13:22:08;9.73;;;2.70;;
11313;SDS011;5712;48.858;9.206;2023-02-01T13:24:40;5.50;;;2.10;;
11313;SDS011;5712;48.858;9.206;2023-02-01T13:27:11;6.47;;;2.47;;
11313;SDS011;5712;48.858;9.206;2023-02-01T13:29:42;9.30;;;2.27;;
11313;SDS011;5712;48.858;9.206;2023-02-01T13:32:20;8.90;;;2.60;;
11313;SDS011;5712;48.858;9.206;2023-02-01T13:35:14;7.80;;;2.27;;
11313;SDS011;5712;48.858;9.206;2023-02-01T13:40:48;8.53;;;2.10;;
11313;SDS011;5712;48.858;9.206;2023-02-01T13:46:20;9.87;;;2.50;;
11313;SDS011;5712;48.858;9.206;2023-02-01T13:48:47;8.33;;;2.80;;
11313;SDS011;5712;48.858;9.206;2023-02-01T13:51:18;9.30;;;2.10;;
11313;SDS011;5712;48.858;9.206;2023-02-01T13:53:59;7.43;;;2.17;;
11313;SDS011;5712;48.858;9.206;2023-02-01T13:56:26;9.07;;;2.50;;
11313;SDS011;5712;48.858;9.206;2023-02-01T13:58:53;8.50;;;2.67;;
11313;SDS011;5712;48.858;9.206;2023-02-01T14:07:20;6.87;;;1.90;;
11313;SDS011;5712;48.858;9.206;2023-02-01T14:09:48;5.60;;;1.83;;
11313;SDS011;5712;48.858;9.206;2023-02-01T14:15:18;7.60;;;2.30;;
11313;SDS011;5712;48.858;9.206;2023-02-01T14:17:49;6.47;;;2.30;;
11313;SDS011;5712;48.858;9.206;2023-02-01T14:23:23;4.47;;;2.07;;
11313;SDS011;5712;48.858;9.206;2023-02-01T14:26:01;7.90;;;2.50;;
11313;SDS011;5712;48.858;9.206;2023-02-01T14:28:33;9.43;;;2.63;;
11313;SDS011;5712;48.858;9.206;2023-02-01T14:31:12;9.70;;;2.20;;
11313;SDS011;5712;48.858;9.206;2023-02-01T14:33:43;6.83;;;2.30;;
11313;SDS011;5712;48.858;9.206;2023-02-01T14:36:11;6.30;;;2.50;;
11313;SDS011;5712;48.858;9.206;2023-02-01T14:38:39;7.13;;;2.40;;
11313;SDS011;5712;48.858;9.206;2023-02-01T14:44:23;6.23;;;2.47;;
11313;SDS011;5712;48.858;9.206;2023-02-01T14:49:55;10.60;;;3.00;;
11313;SDS011;5712;48.858;9.206;2023-02-01T14:52:28;6.07;;;2.03;;
11313;SDS011;5712;48.858;9.206;2023-02-01T14:55:00;9.93;;;2.20;;
11313;SDS011;5712;48.858;9.206;2023-02-01T14:57:31;4.87;;;2.17;;
11313;SDS011;5712;48.858;9.206;2023-02-01T15:00:05;6.77;;;2.40;;
11313;SDS011;5712;48.858;9.206;2023-02-01T15:02:38;7.17;;;2.50;;
11313;SDS011;5712;48.858;9.206;2023-02-01T15:05:19;7.90;;;2.37;;
11313;SDS011;5712;48.858;9.206;2023-02-01T15:07:51;12.27;;;2.43;;
11313;SDS011;5712;48.858;9.206;2023-02-01T15:10:18;11.40;;;2.70;;
11313;SDS011;5712;48.858;9.206;2023-02-01T15:12:47;6.73;;;3.00;;
11313;SDS011;5712;48.858;9.206;2023-02-01T15:15:16;6.53;;;2.23;;
11313;SDS011;5712;48.858;9.206;2023-02-01T15:17:49;8.33;;;2.30;;
11313;SDS011;5712;48.858;9.206;2023-02-01T15:20:19;5.87;;;2.17;;
11313;SDS011;5712;48.858;9.206;2023-02-01T15:22:56;8.87;;;2.57;;
11313;SDS011;5712;48.858;9.206;2023-02-01T15:25:25;9.03;;;2.33;;
11313;SDS011;5712;48.858;9.206;2023-02-01T15:27:53;7.90;;;2.20;;
11313;SDS011;5712;48.858;9.206;2023-02-01T15:30:21;5.87;;;2.07;;
11313;SDS011;5712;48.858;9.206;2023-02-01T15:32:49;6.00;;;1.87;;
11313;SDS011;5712;48.858;9.206;2023-02-01T15:38:20;9.80;;;2.80;;
11313;SDS011;5712;48.858;9.206;2023-02-01T15:40:59;5.73;;;1.93;;
11313;SDS011;5712;48.858;9.206;2023-02-01T15:43:27;6.87;;;2.27;;
11313;SDS011;5712;48.858;9.206;2023-02-01T15:45:56;9.40;;;2.30;;
11313;SDS011;5712;48.858;9.206;2023-02-01T15:48:23;7.07;;;2.27;;
11313;SDS011;5712;48.858;9.206;2023-02-01T15:50:53;8.37;;;3.10;;
11313;SDS011;5712;48.858;9.206;2023-02-01T15:53:22;6.53;;;2.37;;
11313;SDS011;5712;48.858;9.206;2023-02-01T15:55:55;8.33;;;2.40;;
11313;SDS011;5712;48.858;9.206;2023-02-01T15:58:24;10.63;;;2.33;;
11313;SDS011;5712;48.858;9.206;2023-02-01T16:00:53;5.13;;;2.03;;
11313;SDS011;5712;48.858;9.206;2023-02-01T16:03:33;9.63;;;2.63;;